Latest Weather Observations for Narrabri

IDN60801

Issued at 6:03 pm EST Tuesday 26 July 2016 (issued every 30 minutes, with the page automatically refreshed every 10 minutes)

About weather observations | Map of weather stations | Latest weather observations for NSW | Other Formats
Station Details ID: 054038 Name: NARRABRI AIRPORT AWS Lat: -30.32 Lon: 149.83 Height: 229.02 m
Data from the previous 72 hours. | See also: Recent months at Narrabri
Date/Time
EST
Temp
°C
App
Temp
°C
Dew
Point
°C
Rel
Hum
%
Delta-T
°C
Wind Press
QNH
hPa
Press
MSL
hPa
Rain since
9am
mm
Dir  Spd
km/h
Gust
km/h
Spd
kts
Gust
kts
26/06:00pm 10.1 7.8 4.7 69 2.4 N 6 7 3 4 1017.9 1018.0 0.0
26/05:30pm 11.8 9.3 4.8 62 3.2 NW 7 7 4 4 1017.7 1017.8 0.0
26/05:00pm 13.9 10.9 4.2 52 4.5 NNW 9 11 5 6 1017.5 1017.6 0.0
26/04:30pm 15.3 11.9 3.8 46 5.3 NW 11 15 6 8 1017.6 1017.7 0.0
26/04:00pm 15.9 12.5 4.0 45 5.6 NW 11 15 6 8 1017.6 1017.7 0.0
26/03:30pm 16.0 13.2 3.4 43 5.8 WNW 7 13 4 7 1017.8 1017.9 0.0
26/03:00pm 15.8 12.6 3.3 43 5.8 WNW 9 17 5 9 1017.7 1017.8 0.0
26/02:30pm 16.0 13.4 4.1 45 5.6 NW 7 13 4 7 1017.9 1018.0 0.0
26/02:00pm 15.3 12.1 2.8 43 5.7 WNW 9 13 5 7 1018.4 1018.6 0.0
26/01:30pm 15.1 11.5 3.0 44 5.5 WNW 11 17 6 9 1018.5 1018.7 0.0
26/01:00pm 14.4 10.7 2.6 45 5.3 WSW 11 19 6 10 1019.0 1019.2 0.0
26/12:30pm 14.2 9.8 2.8 46 5.1 W 15 22 8 12 1019.5 1019.7 0.0
26/12:00pm 14.2 10.4 3.9 50 4.7 WNW 13 20 7 11 1019.8 1020.0 0.0
26/11:30am 13.6 9.8 3.9 52 4.5 WSW 13 17 7 9 1020.5 1020.7 0.0
26/11:00am 13.6 10.1 3.4 50 4.6 W 11 17 6 9 1021.0 1021.1 0.0
26/10:30am 12.8 9.9 2.4 49 4.6 W 7 13 4 7 1021.3 1021.4 0.0
26/10:00am 12.0 10.8 4.5 60 3.4 CALM 0 6 0 3 1021.5 1021.6 0.0
26/09:30am 9.3 7.6 5.9 79 1.6 SW 4 6 2 3 1021.5 1021.6 0.0
26/09:00am 7.0 5.0 4.3 83 1.2 SW 4 7 2 4 1021.5 1021.6 0.0
26/08:30am 4.9 3.3 2.4 84 1.0 CALM 0 0 0 0 1021.5 1021.6 0.0
26/08:00am 3.4 1.2 0.8 83 1.0 SSE 2 7 1 4 1021.6 1021.7 0.0
26/07:30am 3.3 0.2 1.3 87 0.8 E 7 11 4 6 1021.3 1021.4 0.0
26/07:00am 1.4 -1.5 -1.3 82 1.0 ENE 4 7 2 4 1021.4 1021.5 0.0
26/06:30am 4.2 0.0 1.6 83 1.0 E 13 17 7 9 1021.0 1021.1 0.0
26/06:00am 3.7 -0.9 1.6 86 0.8 E 15 19 8 10 1020.6 1020.8 0.0
26/05:30am 3.8 -0.4 1.4 84 0.9 E 13 17 7 9 1020.5 1020.7 0.0
26/05:00am 2.8 -1.9 0.9 87 0.7 ENE 15 17 8 9 1020.2 1020.4 0.0
26/04:30am 2.4 0.5 0.5 87 0.7 CALM 0 0 0 0 1020.2 1020.4 0.0
26/04:00am 3.0 -0.9 1.2 88 0.7 ENE 11 15 6 8 1020.2 1020.4 0.0
26/03:30am 2.3 0.0 0.2 86 0.8 S 2 7 1 4 1020.4 1020.6 0.0
26/03:00am 2.6 0.3 0.2 84 0.9 SSE 2 7 1 4 1020.4 1020.6 0.0
26/02:30am 3.4 0.7 0.5 81 1.1 ESE 4 7 2 4 1020.5 1020.7 0.0
26/02:00am 5.6 1.4 1.5 75 1.6 E 13 17 7 9 1020.4 1020.6 0.0
26/01:30am 5.2 0.2 1.5 77 1.5 E 17 17 9 9 1020.5 1020.7 0.0
26/01:00am 5.1 0.5 1.4 77 1.5 E 15 17 8 9 1020.6 1020.8 0.0
26/12:30am 5.4 1.1 1.3 75 1.6 E 13 17 7 9 1020.5 1020.7 0.0
26/12:00am 5.9 1.7 1.4 73 1.8 E 13 15 7 8 1020.5 1020.7 0.0
 
Date/Time
EST
Temp
°C
App
Temp
°C
Dew
Point
°C
Rel
Hum
%
Delta-T
°C
Wind Press
QNH
hPa
Press
MSL
hPa
Rain since
9am
mm
Dir  Spd
km/h
Gust
km/h
Spd
kts
Gust
kts
25/11:30pm 5.6 1.7 1.3 74 1.7 ENE 11 13 6 7 1020.5 1020.7 0.0
25/11:00pm 7.4 4.4 1.9 68 2.3 NE 7 11 4 6 1020.3 1020.5 0.0
25/10:30pm 6.3 2.5 2.0 74 1.8 ENE 11 15 6 8 1019.8 1020.0 0.0
25/10:00pm 6.5 3.1 2.0 73 1.8 NE 9 11 5 6 1019.8 1020.0 0.0
25/09:30pm 6.2 2.4 1.7 73 1.8 NE 11 13 6 7 1019.7 1019.9 0.0
25/09:00pm 6.5 2.4 2.2 74 1.8 ENE 13 17 7 9 1019.7 1019.9 0.0
25/08:30pm 6.8 3.1 2.3 73 1.9 ENE 11 15 6 8 1019.7 1019.9 0.0
25/08:00pm 7.5 3.8 2.6 71 2.1 ENE 11 13 6 7 1019.6 1019.8 0.0
25/07:30pm 8.1 4.8 2.6 68 2.3 ENE 9 11 5 6 1019.3 1019.5 0.0
25/07:00pm 8.3 5.1 2.8 68 2.3 NE 9 11 5 6 1019.3 1019.5 0.0
25/06:30pm 8.8 5.9 2.8 66 2.6 N 7 9 4 5 1019.2 1019.4 0.0
25/06:00pm 9.8 6.6 3.3 64 2.8 NW 9 13 5 7 1018.9 1019.1 0.0
25/05:30pm 10.9 7.7 3.0 58 3.5 WNW 9 13 5 7 1018.6 1018.8 0.0
25/05:00pm 13.2 9.2 2.7 49 4.7 WNW 13 17 7 9 1018.3 1018.5 0.0
25/04:30pm 14.6 10.0 1.5 41 5.8 W 15 20 8 11 1018.1 1018.3 0.0
25/04:00pm 15.1 10.5 1.6 40 6.0 WSW 15 20 8 11 1018.0 1018.1 0.0
25/03:30pm 15.4 10.1 -0.4 34 6.7 W 17 24 9 13 1018.0 1018.1 0.0
25/03:00pm 15.7 10.2 0.7 36 6.5 WNW 19 26 10 14 1017.9 1018.0 0.0
25/02:30pm 15.5 9.6 -0.7 33 6.9 WNW 20 26 11 14 1018.0 1018.1 0.0
25/02:00pm 15.6 10.6 1.4 38 6.3 NW 17 22 9 12 1018.1 1018.3 0.0
25/01:30pm 15.4 11.4 2.9 43 5.7 WNW 13 20 7 11 1018.3 1018.5 0.0
25/01:00pm 15.2 11.5 2.4 42 5.8 WNW 11 20 6 11 1018.6 1018.8 0.0
25/12:30pm 15.0 11.8 2.9 44 5.5 WNW 9 17 5 9 1018.9 1019.1 0.0
25/12:00pm 13.9 10.7 3.1 48 4.9 SW 9 13 5 7 1019.3 1019.5 0.0
25/11:30am 13.8 9.8 3.0 48 4.9 SW 13 20 7 11 1019.8 1020.0 0.0
25/11:00am 13.3 8.6 3.4 51 4.5 SW 17 22 9 12 1020.1 1020.3 0.0
25/10:30am 12.7 10.2 3.9 55 4.0 SW 6 9 3 5 1020.2 1020.4 0.0
25/10:00am 11.9 9.5 4.2 59 3.5 W 6 9 3 5 1020.2 1020.4 0.0
25/09:30am 11.4 8.9 4.8 64 3.0 WNW 7 13 4 7 1020.4 1020.6 0.0
25/09:00am 10.9 8.0 4.6 65 2.9 NNW 9 13 5 7 1020.1 1020.3 0.0
25/08:30am 10.2 7.4 5.2 71 2.3 N 9 13 5 7 1019.7 1019.9 0.0
25/08:00am 8.8 6.2 4.4 74 2.0 NNE 7 9 4 5 1019.7 1019.9 0.0
25/07:30am 7.2 4.6 4.0 80 1.4 N 7 9 4 5 1019.3 1019.5 0.0
25/07:00am 6.8 3.6 3.2 78 1.5 N 9 11 5 6 1018.9 1019.1 0.0
25/06:30am 7.9 4.0 3.6 74 1.9 N 13 17 7 9 1018.5 1018.7 0.0
25/06:00am 9.2 5.0 3.8 69 2.4 NW 15 22 8 12 1018.2 1018.4 0.0
25/05:30am 9.5 5.4 4.3 70 2.3 N 15 17 8 9 1017.8 1017.9 0.0
25/05:00am 10.0 5.1 4.2 67 2.6 N 19 24 10 13 1017.1 1017.2 0.0
25/04:30am 10.1 5.1 4.5 68 2.5 N 20 26 11 14 1016.8 1016.9 0.0
25/04:00am 10.1 4.4 4.7 69 2.4 NNE 24 30 13 16 1016.8 1016.9 0.0
25/03:30am 9.4 4.6 4.6 72 2.2 NNE 19 22 10 12 1016.7 1016.8 0.0
25/03:00am 9.5 4.5 4.5 71 2.2 NNE 20 26 11 14 1016.7 1016.8 0.0
25/02:30am 9.3 4.5 4.5 72 2.2 NNE 19 24 10 13 1016.8 1016.9 0.0
25/02:00am 9.1 5.0 4.3 72 2.1 NNE 15 20 8 11 1016.9 1017.0 0.0
25/01:30am 8.4 3.9 4.4 76 1.8 NE 17 19 9 10 1016.9 1017.0 0.0
25/01:00am 8.2 3.7 4.2 76 1.8 NE 17 20 9 11 1017.1 1017.2 0.0
25/12:30am 8.1 3.6 4.3 77 1.7 NNE 17 20 9 11 1017.1 1017.2 0.0
25/12:00am 6.6 2.4 3.8 82 1.2 NNE 15 17 8 9 1017.4 1017.5 0.0
 
Date/Time
EST
Temp
°C
App
Temp
°C
Dew
Point
°C
Rel
Hum
%
Delta-T
°C
Wind Press
QNH
hPa
Press
MSL
hPa
Rain since
9am
mm
Dir  Spd
km/h
Gust
km/h
Spd
kts
Gust
kts
24/11:30pm 5.5 1.1 2.7 82 1.2 ENE 15 19 8 10 1017.6 1017.7 0.0
24/11:00pm 5.6 1.2 2.6 81 1.2 ENE 15 17 8 9 1017.8 1017.9 0.0
24/10:30pm 5.9 1.5 2.7 80 1.3 ENE 15 17 8 9 1017.6 1017.7 0.0
24/10:00pm 6.1 1.4 3.3 82 1.2 ENE 17 19 9 10 1017.5 1017.6 0.0
24/09:30pm 5.9 2.4 3.4 84 1.1 ENE 11 13 6 7 1017.6 1017.7 0.0
24/09:00pm 6.1 3.3 3.4 83 1.1 NE 7 9 4 5 1017.6 1017.7 0.0
24/08:30pm 6.7 3.7 3.9 82 1.2 NE 9 9 5 5 1017.6 1017.7 0.0
24/08:00pm 6.7 3.7 3.9 82 1.2 NNE 9 11 5 6 1017.3 1017.4 0.0
24/07:30pm 7.3 4.3 4.3 81 1.3 NNE 9 9 5 5 1017.0 1017.1 0.0
24/07:00pm 7.8 5.3 4.7 81 1.4 N 7 9 4 5 1016.8 1016.9 0.0
24/06:30pm 8.1 5.1 4.3 77 1.7 N 9 11 5 6 1016.1 1016.3 0.0
24/06:00pm 8.8 6.2 4.4 74 2.0 N 7 9 4 5 1015.7 1015.9 0.0
24/05:30pm 9.7 6.8 4.7 71 2.3 N 9 9 5 5 1015.4 1015.6 0.0
24/05:00pm 10.6 7.8 5.2 69 2.5 N 9 15 5 8 1015.0 1015.2 0.0
24/04:30pm 11.3 7.7 5.2 66 2.8 N 13 17 7 9 1015.3 1015.5 0.0
24/04:00pm 11.7 7.7 4.9 63 3.1 NNW 15 19 8 10 1015.4 1015.6 0.0
24/03:30pm 12.2 7.7 4.2 58 3.7 NNW 17 20 9 11 1015.3 1015.5 0.0
24/03:00pm 12.2 8.4 3.9 57 3.8 N 13 19 7 10 1015.3 1015.5 0.0
24/02:30pm 11.9 8.6 4.6 61 3.4 N 11 17 6 9 1015.7 1015.9 0.0
24/02:00pm 11.9 9.1 3.4 56 3.8 NNW 7 11 4 6 1015.6 1015.8 0.0
24/01:30pm 12.0 9.6 4.2 59 3.6 WNW 6 7 3 4 1016.3 1016.4 0.0
24/01:00pm 11.3 9.1 3.6 59 3.4 N 4 7 2 4 1016.3 1016.4 0.0
24/12:30pm 11.6 10.3 4.3 61 3.3 CALM 0 6 0 3 1017.0 1017.1 0.0
24/12:00pm 11.1 9.0 4.1 62 3.2 SSE 4 9 2 5 1017.2 1017.3 0.0
24/11:30am 10.4 7.9 3.7 63 3.0 SSE 6 9 3 5 1017.8 1017.9 0.0
24/11:00am 10.0 7.8 5.2 72 2.2 SW 6 7 3 4 1018.6 1018.8 0.0
24/10:30am 9.5 7.4 6.0 79 1.6 WSW 6 7 3 4 1018.9 1019.1 0.0
24/10:00am 9.3 7.8 4.9 74 2.0 S 2 6 1 3 1018.4 1018.6 0.0
24/09:30am 9.0 8.0 5.4 78 1.6 CALM 0 4 0 2 1018.2 1018.4 0.0
24/09:00am 8.2 7.1 5.3 82 1.3 CALM 0 0 0 0 1018.3 1018.5 0.0
24/08:30am 8.1 6.7 5.4 83 1.2 NE 2 7 1 4 1018.2 1018.4 0.0
24/08:00am 7.3 5.0 4.8 84 1.1 SSE 6 9 3 5 1017.6 1017.7 0.0
24/07:30am 6.5 3.5 4.3 86 1.0 SSE 9 11 5 6 1018.1 1018.3 0.0
24/07:00am 5.6 2.4 3.3 85 1.0 SSW 9 11 5 6 1017.3 1017.4 0.0
24/06:30am 6.3 4.9 3.6 83 1.2 CALM 0 0 0 0 1016.6 1016.7 0.0
24/06:00am 6.6 4.4 3.6 81 1.3 NW 4 9 2 5 1016.6 1016.7 0.0
24/05:30am 8.0 5.2 3.1 71 2.1 SE 7 13 4 7 1016.3 1016.4 0.0
24/05:00am 7.7 4.1 3.2 73 1.9 SE 11 15 6 8 1015.6 1015.8 0.0
24/04:30am 7.6 3.3 3.3 74 1.8 SE 15 20 8 11 1015.6 1015.8 0.0
24/04:00am 6.6 2.6 3.0 78 1.5 SE 13 17 7 9 1015.7 1015.9 0.0
24/03:30am 6.4 3.1 2.5 76 1.6 SSE 9 13 5 7 1015.3 1015.5 0.0
24/03:00am 7.2 4.8 5.2 87 0.9 SE 7 15 4 8 1015.5 1015.7 0.0
24/02:30am 5.5 4.1 3.8 89 0.7 CALM 0 0 0 0 1016.4 1016.5 0.0
24/02:00am 5.2 3.7 3.2 87 0.8 CALM 0 0 0 0 1016.8 1016.9 0.0
24/01:30am 5.2 2.9 2.9 85 1.0 SE 4 7 2 4 1016.7 1016.8 0.0
24/01:00am 5.0 3.5 2.9 86 0.9 CALM 0 0 0 0 1017.4 1017.5 0.0
24/12:30am 5.6 4.2 3.4 86 0.9 CALM 0 6 0 3 1017.2 1017.3 0.0
24/12:00am 5.6 4.2 3.6 87 0.8 CALM 0 0 0 0 1016.9 1017.0 0.0
 
Date/Time
EST
Temp
°C
App
Temp
°C
Dew
Point
°C
Rel
Hum
%
Delta-T
°C
Wind Press
QNH
hPa
Press
MSL
hPa
Rain since
9am
mm
Dir  Spd
km/h
Gust
km/h
Spd
kts
Gust
kts
23/11:30pm 6.0 4.7 4.0 87 0.9 CALM 0 0 0 0 1016.7 1016.8 0.0
23/11:00pm 6.2 4.9 4.2 87 0.9 CALM 0 4 0 2 1017.2 1017.3 0.0
23/10:30pm 5.7 3.9 3.2 84 1.1 SSE 2 7 1 4 1017.1 1017.2 0.0
23/10:00pm 7.3 4.2 3.7 78 1.6 S 9 9 5 5 1017.1 1017.2 0.0
23/09:30pm 8.0 5.4 4.0 76 1.8 S 7 9 4 5 1016.7 1016.8 0.0
23/09:00pm 8.4 5.8 4.4 76 1.8 SSW 7 11 4 6 1016.7 1016.8 0.0
23/08:30pm 8.5 5.9 4.1 74 1.9 SSW 7 9 4 5 1016.5 1016.6 0.0
23/08:00pm 9.0 6.4 4.4 73 2.1 SSW 7 9 4 5 1016.5 1016.6 0.0
23/07:30pm 9.6 6.6 4.0 68 2.5 SSW 9 11 5 6 1016.0 1016.2 0.0
23/07:00pm 10.7 6.9 4.0 63 3.0 SW 13 19 7 10 1015.8 1016.0 0.0
23/06:30pm 10.7 6.9 4.0 63 3.0 SW 13 15 7 8 1015.0 1015.2 0.0

Other Formats:

Comma delimited format used in spreadsheet applications
http://www.bom.gov.au/fwo/IDN60801/IDN60801.95734.axf

JavaScript Object Notation format (JSON) in row-major order
http://www.bom.gov.au/fwo/IDN60801/IDN60801.95734.json